createdAt,value
2018-10-11T00:00:43.930Z,98.05
2018-10-11T00:01:43.929Z,98.05
2018-10-11T00:02:43.923Z,97.75
2018-10-11T00:03:43.920Z,97.95
2018-10-11T00:04:43.923Z,97.42
2018-10-11T00:05:43.918Z,98.19
2018-10-11T00:06:43.911Z,98.09
2018-10-11T00:07:43.914Z,98.76
2018-10-11T00:08:43.908Z,98.76
2018-10-11T00:09:43.905Z,98.57
2018-10-11T00:10:43.905Z,98.95
2018-10-11T00:11:43.907Z,99.05
2018-10-11T00:12:43.901Z,98.86
2018-10-11T00:13:43.898Z,99.33
2018-10-11T00:14:43.903Z,99.81
2018-10-11T00:15:43.905Z,99.91
2018-10-11T00:16:43.891Z,98.86
2018-10-11T00:17:43.891Z,99.43
2018-10-11T00:18:43.897Z,99.91
2018-10-11T00:19:43.884Z,99.72
2018-10-11T00:20:43.879Z,99.91
2018-10-11T00:21:43.876Z,99.33
2018-10-11T00:22:43.880Z,99.99
2018-10-11T00:23:43.873Z,99.99
2018-10-11T00:24:43.867Z,99.99
2018-10-11T00:25:43.875Z,99.99
2018-10-11T00:26:43.866Z,99.99
2018-10-11T00:27:43.861Z,99.99
2018-10-11T00:28:43.857Z,99.99
2018-10-11T00:29:43.863Z,99.99
2018-10-11T00:30:43.881Z,99.99
2018-10-11T00:31:43.851Z,99.99
2018-10-11T00:32:43.846Z,99.99
2018-10-11T00:33:43.847Z,99.99
2018-10-11T00:34:43.846Z,99.99
2018-10-11T00:35:43.843Z,99.99
2018-10-11T00:36:43.842Z,99.99
2018-10-11T00:37:43.844Z,99.99
2018-10-11T00:38:43.836Z,99.99
2018-10-11T00:39:43.831Z,99.99
2018-10-11T00:40:43.831Z,99.99
2018-10-11T00:41:43.826Z,99.99
2018-10-11T00:42:43.824Z,99.99
2018-10-11T00:43:43.832Z,99.99
2018-10-11T00:44:43.819Z,99.99
2018-10-11T00:45:43.818Z,99.99
2018-10-11T00:46:43.811Z,99.99
2018-10-11T00:47:43.807Z,99.99
2018-10-11T00:48:43.809Z,99.99
2018-10-11T00:49:43.807Z,99.99
2018-10-11T00:50:43.796Z,99.99
2018-10-11T00:51:43.803Z,99.99
2018-10-11T00:52:43.794Z,99.99
2018-10-11T00:53:43.790Z,99.99
2018-10-11T00:54:43.795Z,99.99
2018-10-11T00:55:43.784Z,99.99
2018-10-11T00:56:43.789Z,99.99
2018-10-11T00:57:43.781Z,99.99
2018-10-11T00:58:43.774Z,99.99
2018-10-11T00:59:43.777Z,99.99
2018-10-11T01:00:43.775Z,99.99
2018-10-11T01:01:43.772Z,99.99
2018-10-11T01:02:43.769Z,99.99
2018-10-11T01:03:43.763Z,99.99
2018-10-11T01:04:43.764Z,99.99
2018-10-11T01:05:43.755Z,99.99
2018-10-11T01:06:43.755Z,99.99
2018-10-11T01:07:43.760Z,99.99
2018-10-11T01:08:43.751Z,99.99
2018-10-11T01:09:43.748Z,99.99
2018-10-11T01:10:43.747Z,99.99
2018-10-11T01:11:43.746Z,99.99
2018-10-11T01:12:43.735Z,99.99
2018-10-11T01:13:43.735Z,99.99
2018-10-11T01:14:43.733Z,99.99
2018-10-11T01:15:43.732Z,99.99
2018-10-11T01:16:43.726Z,99.99
2018-10-11T01:17:43.724Z,99.99
2018-10-11T01:18:43.718Z,99.99
2018-10-11T01:19:43.719Z,99.99
2018-10-11T01:20:43.713Z,99.99
2018-10-11T01:21:43.708Z,99.99
2018-10-11T01:22:43.715Z,99.99
2018-10-11T01:23:43.769Z,99.99
2018-10-11T01:24:43.707Z,99.99
2018-10-11T01:25:43.698Z,99.99
2018-10-11T01:26:43.696Z,99.99
2018-10-11T01:27:43.691Z,99.99
2018-10-11T01:28:43.689Z,99.99
2018-10-11T01:29:43.755Z,99.99
2018-10-11T01:30:43.686Z,99.99
2018-10-11T01:31:43.688Z,99.99
2018-10-11T01:32:43.679Z,99.99
2018-10-11T01:33:43.679Z,99.99
2018-10-11T01:34:43.690Z,99.99
2018-10-11T01:35:43.667Z,99.99
2018-10-11T01:36:43.668Z,99.99
2018-10-11T01:37:43.672Z,99.99
2018-10-11T01:38:43.702Z,99.99
2018-10-11T01:39:43.664Z,99.99
2018-10-11T01:40:43.655Z,99.99
2018-10-11T01:41:43.651Z,99.99
2018-10-11T01:42:43.648Z,99.99
2018-10-11T01:43:43.644Z,99.99
2018-10-11T01:44:43.650Z,99.99
2018-10-11T01:45:43.679Z,99.99
2018-10-11T01:46:43.636Z,99.99
2018-10-11T01:47:43.635Z,99.99
2018-10-11T01:48:43.631Z,99.99
2018-10-11T01:49:43.633Z,99.99
2018-10-11T01:50:43.624Z,99.99
2018-10-11T01:51:43.618Z,99.99
2018-10-11T01:52:43.618Z,99.99
2018-10-11T01:53:43.616Z,99.99
2018-10-11T01:54:43.613Z,99.99
2018-10-11T01:55:43.611Z,99.99
2018-10-11T01:56:43.651Z,99.99
2018-10-11T01:57:43.605Z,99.99
2018-10-11T01:58:43.600Z,99.99
2018-10-11T01:59:43.598Z,99.99
2018-10-11T02:00:43.591Z,99.99
2018-10-11T02:01:43.594Z,99.99
2018-10-11T02:02:43.590Z,99.99
2018-10-11T02:03:43.583Z,99.99
2018-10-11T02:04:43.577Z,99.99
2018-10-11T02:05:43.583Z,99.99
2018-10-11T02:06:43.573Z,99.99
2018-10-11T02:07:43.574Z,99.99
2018-10-11T02:08:43.566Z,99.99
2018-10-11T02:09:43.565Z,99.99
2018-10-11T02:10:43.564Z,99.99
2018-10-11T02:11:43.557Z,99.99
2018-10-11T02:12:43.557Z,99.99
2018-10-11T02:13:43.553Z,99.99
2018-10-11T02:14:43.549Z,99.99
2018-10-11T02:15:43.545Z,99.99
2018-10-11T02:16:43.541Z,99.99
2018-10-11T02:17:43.545Z,99.99
2018-10-11T02:18:43.540Z,99.99
2018-10-11T02:19:43.531Z,99.99
2018-10-11T02:20:43.530Z,99.99
2018-10-11T02:21:43.526Z,99.99
2018-10-11T02:22:43.522Z,99.99
2018-10-11T02:23:43.531Z,99.99
2018-10-11T02:24:43.513Z,99.99
2018-10-11T02:25:43.514Z,99.99
2018-10-11T02:26:43.507Z,99.99
2018-10-11T02:27:43.508Z,99.99
2018-10-11T02:28:43.510Z,99.99
2018-10-11T02:29:43.494Z,99.99
2018-10-11T02:30:43.494Z,99.99
2018-10-11T02:31:43.492Z,99.99
2018-10-11T02:32:43.486Z,99.99
2018-10-11T02:33:43.488Z,99.99
2018-10-11T02:34:43.499Z,99.99
2018-10-11T02:35:43.477Z,99.99
2018-10-11T02:36:43.482Z,99.99
2018-10-11T02:37:43.471Z,99.99
2018-10-11T02:38:43.474Z,99.99
2018-10-11T02:39:43.481Z,99.99
2018-10-11T02:40:43.460Z,99.99
2018-10-11T02:41:43.458Z,99.99
2018-10-11T02:42:43.452Z,99.99
2018-10-11T02:43:43.456Z,99.99
2018-10-11T02:44:43.449Z,99.99
2018-10-11T02:45:43.441Z,99.99
2018-10-11T02:46:43.447Z,99.99
2018-10-11T02:47:43.439Z,99.99
2018-10-11T02:48:43.430Z,99.99
2018-10-11T02:49:43.434Z,99.99
2018-10-11T02:50:43.430Z,99.99
2018-10-11T02:51:43.428Z,99.99
2018-10-11T02:52:43.418Z,99.99
2018-10-11T02:53:43.412Z,99.99
2018-10-11T02:54:43.413Z,99.99
2018-10-11T02:55:43.408Z,99.99
2018-10-11T02:56:43.403Z,99.99
2018-10-11T02:57:43.399Z,99.99
2018-10-11T02:58:43.396Z,99.99
2018-10-11T02:59:43.396Z,99.99
2018-10-11T03:00:43.391Z,99.99
2018-10-11T03:01:43.386Z,99.99
2018-10-11T03:02:43.385Z,99.99
2018-10-11T03:03:43.386Z,99.99
2018-10-11T03:04:43.373Z,99.99
2018-10-11T03:05:43.372Z,99.99
2018-10-11T03:06:43.366Z,99.99
2018-10-11T03:07:43.367Z,99.99
2018-10-11T03:09:18.892Z,99.99
2018-10-11T03:09:43.355Z,99.99
2018-10-11T03:10:43.358Z,99.99
2018-10-11T03:11:43.351Z,99.99
2018-10-11T03:12:43.349Z,99.99
2018-10-11T03:13:43.342Z,99.99
2018-10-11T03:14:43.336Z,99.99
2018-10-11T03:15:43.339Z,99.99
2018-10-11T03:16:43.330Z,99.99
2018-10-11T03:17:43.327Z,99.99
2018-10-11T03:18:43.323Z,99.99
2018-10-11T03:19:43.316Z,99.99
2018-10-11T03:20:43.317Z,99.99
2018-10-11T03:21:43.311Z,99.99
2018-10-11T03:22:43.310Z,99.99
2018-10-11T03:23:43.306Z,99.99
2018-10-11T03:24:43.299Z,99.99
2018-10-11T03:25:43.300Z,99.99
2018-10-11T03:26:43.296Z,99.99
2018-10-11T03:27:43.288Z,99.99
2018-10-11T03:28:43.286Z,99.99
2018-10-11T03:29:43.282Z,99.99
2018-10-11T03:30:43.280Z,99.99
2018-10-11T03:31:43.274Z,99.99
2018-10-11T03:32:43.269Z,99.99
2018-10-11T03:33:43.271Z,99.99
2018-10-11T03:34:43.261Z,99.99
2018-10-11T03:35:43.261Z,99.99
2018-10-11T03:36:43.254Z,99.99
2018-10-11T03:37:43.250Z,99.99
2018-10-11T03:38:43.248Z,99.99
2018-10-11T03:39:43.245Z,99.99
2018-10-11T03:40:43.241Z,99.99
2018-10-11T03:41:43.235Z,99.99
2018-10-11T03:42:43.230Z,99.99
2018-10-11T03:43:43.227Z,99.99
2018-10-11T03:44:43.225Z,99.99
2018-10-11T03:45:43.222Z,99.99
2018-10-11T03:46:43.218Z,99.99
2018-10-11T03:47:43.217Z,99.99
2018-10-11T03:48:43.208Z,99.99
2018-10-11T03:49:43.205Z,99.99
2018-10-11T03:50:43.199Z,99.99
2018-10-11T03:51:43.197Z,99.99
2018-10-11T03:52:43.195Z,99.99
2018-10-11T03:53:43.191Z,99.99
2018-10-11T03:54:43.188Z,99.99
2018-10-11T03:55:43.180Z,99.99
2018-10-11T03:56:43.177Z,99.99
2018-10-11T03:57:43.170Z,99.99
2018-10-11T03:58:43.172Z,99.99
2018-10-11T03:59:43.172Z,99.99
2018-10-11T04:00:43.160Z,99.99
2018-10-11T04:01:43.158Z,99.99
2018-10-11T04:02:43.155Z,99.99
2018-10-11T04:03:43.161Z,99.99
2018-10-11T04:04:43.147Z,99.99
2018-10-11T04:05:43.140Z,99.99
2018-10-11T04:06:43.144Z,99.99
2018-10-11T04:07:43.139Z,99.99
2018-10-11T04:08:43.132Z,99.99
2018-10-11T04:09:43.128Z,99.99
2018-10-11T04:10:43.123Z,99.99
2018-10-11T04:11:43.128Z,99.99
2018-10-11T04:12:43.112Z,99.99
2018-10-11T04:13:43.112Z,99.99
2018-10-11T04:14:43.110Z,99.99
2018-10-11T04:15:43.153Z,99.99
2018-10-11T04:16:43.105Z,99.99
2018-10-11T04:17:43.090Z,99.99
2018-10-11T04:18:43.099Z,99.99
2018-10-11T04:19:43.089Z,99.99
2018-10-11T04:20:43.081Z,99.99
2018-10-11T04:21:43.085Z,99.99
2018-10-11T04:22:43.076Z,99.99
2018-10-11T04:23:43.080Z,99.99
2018-10-11T04:24:43.063Z,99.99
2018-10-11T04:25:43.066Z,99.99
2018-10-11T04:26:43.062Z,99.99
2018-10-11T04:27:43.058Z,99.99
2018-10-11T04:28:43.053Z,99.99
2018-10-11T04:29:43.048Z,99.99
2018-10-11T04:30:43.041Z,99.99
2018-10-11T04:31:43.045Z,99.99
2018-10-11T04:32:43.034Z,99.99
2018-10-11T04:33:43.035Z,99.99
2018-10-11T04:34:43.026Z,99.99
2018-10-11T04:35:43.024Z,99.99
2018-10-11T04:36:43.022Z,99.99
2018-10-11T04:37:43.020Z,99.99
2018-10-11T04:38:43.013Z,99.99
2018-10-11T04:39:43.011Z,99.99
2018-10-11T04:40:43.004Z,99.99
2018-10-11T04:41:43.002Z,99.99
2018-10-11T04:42:43.126Z,99.99
2018-10-11T04:43:42.994Z,99.99
2018-10-11T04:44:42.988Z,99.99
2018-10-11T04:45:42.989Z,99.99
2018-10-11T04:46:42.984Z,99.99
2018-10-11T04:47:42.980Z,99.99
2018-10-11T04:48:42.972Z,99.99
2018-10-11T04:49:42.972Z,99.99
2018-10-11T04:50:42.964Z,99.99
2018-10-11T04:51:42.965Z,99.99
2018-10-11T04:52:42.968Z,99.99
2018-10-11T04:53:43.021Z,99.99
2018-10-11T04:54:42.949Z,99.99
2018-10-11T04:55:42.945Z,99.99
2018-10-11T04:56:42.945Z,99.99
2018-10-11T04:57:42.938Z,99.99
2018-10-11T04:58:42.938Z,99.99
2018-10-11T04:59:42.984Z,99.99
2018-10-11T05:00:42.927Z,99.99
2018-10-11T05:01:42.922Z,99.99
2018-10-11T05:02:42.918Z,99.99
2018-10-11T05:03:42.912Z,99.99
2018-10-11T05:04:42.911Z,99.99
2018-10-11T05:05:42.908Z,99.99
2018-10-11T05:06:42.909Z,99.99
2018-10-11T05:07:42.899Z,99.99
2018-10-11T05:08:42.893Z,99.99
2018-10-11T05:09:42.891Z,99.99
2018-10-11T05:10:42.884Z,99.99
2018-10-11T05:11:42.884Z,99.99
2018-10-11T05:12:42.877Z,99.99
2018-10-11T05:13:42.877Z,99.99
2018-10-11T05:14:42.871Z,99.99
2018-10-11T05:15:42.863Z,99.99
2018-10-11T05:16:42.857Z,99.99
2018-10-11T05:17:42.854Z,99.99
2018-10-11T05:18:42.853Z,99.99
2018-10-11T05:19:42.856Z,99.99
2018-10-11T05:20:42.846Z,99.99
2018-10-11T05:21:42.848Z,99.99
2018-10-11T05:22:42.840Z,99.99
2018-10-11T05:23:42.832Z,99.99
2018-10-11T05:24:42.829Z,99.99
2018-10-11T05:25:42.825Z,99.99
2018-10-11T05:26:42.823Z,99.99
2018-10-11T05:27:42.816Z,99.99
2018-10-11T05:28:42.813Z,99.99
2018-10-11T05:29:42.811Z,99.99
2018-10-11T05:30:42.807Z,99.99
2018-10-11T05:31:42.806Z,99.99
2018-10-11T05:32:42.801Z,99.99
2018-10-11T05:33:42.799Z,99.33
2018-10-11T05:34:42.800Z,99.43
2018-10-11T05:35:42.791Z,99.43
2018-10-11T05:36:42.782Z,99.33
2018-10-11T05:37:42.780Z,99.66
2018-10-11T05:38:42.773Z,98.66
2018-10-11T05:39:42.772Z,99.66
2018-10-11T05:40:42.776Z,99.57
2018-10-11T05:41:42.768Z,99.38
2018-10-11T05:42:42.759Z,98.90
2018-10-11T05:43:42.753Z,98.90
2018-10-11T05:44:42.752Z,99.38
2018-10-11T05:45:42.750Z,98.99
2018-10-11T05:46:42.749Z,99.28
2018-10-11T05:47:42.750Z,98.61
2018-10-11T05:48:42.742Z,98.42
2018-10-11T05:49:42.734Z,98.42
2018-10-11T05:50:42.735Z,98.61
2018-10-11T05:51:42.730Z,98.23
2018-10-11T05:52:42.731Z,98.42
2018-10-11T05:53:42.729Z,98.04
2018-10-11T05:54:42.719Z,98.33
2018-10-11T05:55:42.720Z,97.66
2018-10-11T05:56:42.749Z,97.47
2018-10-11T05:57:42.707Z,97.75
2018-10-11T05:58:42.708Z,97.08
2018-10-11T05:59:42.698Z,97.28
2018-10-11T06:00:42.700Z,96.84
2018-10-11T06:01:42.694Z,96.56
2018-10-11T06:02:42.694Z,96.94
2018-10-11T06:03:42.684Z,96.18
2018-10-11T06:04:42.679Z,96.75
2018-10-11T06:05:42.682Z,95.70
2018-10-11T06:06:42.673Z,95.79
2018-10-11T06:07:42.678Z,95.61
2018-10-11T06:08:42.673Z,95.98
2018-10-11T06:09:42.662Z,95.79
2018-10-11T06:10:42.662Z,95.61
2018-10-11T06:11:42.656Z,95.98
2018-10-11T06:12:42.651Z,95.61
2018-10-11T06:13:42.657Z,95.41
2018-10-11T06:14:42.649Z,95.70
2018-10-11T06:15:42.641Z,95.51
2018-10-11T06:16:42.645Z,95.41
2018-10-11T06:17:42.676Z,95.51
2018-10-11T06:18:42.634Z,95.89
2018-10-11T06:19:42.628Z,95.51
2018-10-11T06:20:42.621Z,95.98
2018-10-11T06:21:42.625Z,95.51
2018-10-11T06:22:42.615Z,95.89
2018-10-11T06:23:42.615Z,95.61
2018-10-11T06:24:42.665Z,95.12
2018-10-11T06:25:42.612Z,95.22
2018-10-11T06:26:42.607Z,95.12
2018-10-11T06:27:42.599Z,94.93
2018-10-11T06:28:42.597Z,94.74
2018-10-11T06:29:42.597Z,95.22
2018-10-11T06:30:42.597Z,95.03
2018-10-11T06:31:42.591Z,94.36
2018-10-11T06:32:42.585Z,93.93
2018-10-11T06:33:42.590Z,93.64
2018-10-11T06:34:42.580Z,94.41
2018-10-11T06:35:42.585Z,93.84
2018-10-11T06:36:42.683Z,93.55
2018-10-11T06:37:42.572Z,92.78
2018-10-11T06:38:42.562Z,92.21
2018-10-11T06:39:42.568Z,92.78
2018-10-11T06:40:42.564Z,92.49
2018-10-11T06:41:42.600Z,92.40
2018-10-11T06:42:42.666Z,92.11
2018-10-11T06:43:42.550Z,91.20
2018-10-11T06:44:42.546Z,90.72
2018-10-11T06:45:42.538Z,91.11
2018-10-11T06:46:42.540Z,90.82
2018-10-11T06:47:42.535Z,91.39
2018-10-11T06:48:42.534Z,91.30
2018-10-11T06:49:42.546Z,90.53
2018-10-11T06:50:42.530Z,90.91
2018-10-11T06:51:42.522Z,90.24
2018-10-11T06:52:42.514Z,89.76
2018-10-11T06:53:42.517Z,89.38
2018-10-11T06:54:42.514Z,89.52
2018-10-11T06:55:42.511Z,89.33
2018-10-11T06:56:42.512Z,89.52
2018-10-11T06:57:42.506Z,89.52
2018-10-11T06:58:42.508Z,88.56
2018-10-11T06:59:43.376Z,88.85
2018-10-11T07:00:42.496Z,88.76
2018-10-11T07:01:42.553Z,89.43
2018-10-11T07:02:42.491Z,88.28
2018-10-11T07:03:42.489Z,87.51
2018-10-11T07:04:42.485Z,87.70
2018-10-11T07:05:42.488Z,87.17
2018-10-11T07:06:42.480Z,86.79
2018-10-11T07:07:42.490Z,86.41
2018-10-11T07:08:42.476Z,86.21
2018-10-11T07:09:42.477Z,85.83
2018-10-11T07:10:42.470Z,84.78
2018-10-11T07:11:42.466Z,84.05
2018-10-11T07:12:42.473Z,83.95
2018-10-11T07:13:42.479Z,83.95
2018-10-11T07:14:42.459Z,83.76
2018-10-11T07:15:42.458Z,83.76
2018-10-11T07:16:42.461Z,83.67
2018-10-11T07:17:42.456Z,83.48
2018-10-11T07:18:42.447Z,83.19
2018-10-11T07:19:42.451Z,83.09
2018-10-11T07:20:42.441Z,83.38
2018-10-11T07:21:42.442Z,83.38
2018-10-11T07:22:42.448Z,83.38
2018-10-11T07:23:42.444Z,83.09
2018-10-11T07:24:42.433Z,83.52
2018-10-11T07:25:42.494Z,82.52
2018-10-11T07:26:42.617Z,83.00
2018-10-11T07:27:42.427Z,82.56
2018-10-11T07:28:42.431Z,82.46
2018-10-11T07:29:42.427Z,82.18
2018-10-11T07:30:42.422Z,82.85
2018-10-11T07:31:42.422Z,82.65
2018-10-11T07:32:42.419Z,81.89
2018-10-11T07:33:42.418Z,82.37
2018-10-11T07:34:42.570Z,81.41
2018-10-11T07:35:42.418Z,81.51
2018-10-11T07:36:42.448Z,81.60
2018-10-11T07:37:42.408Z,81.70
2018-10-11T07:38:42.412Z,81.12
2018-10-11T07:39:42.414Z,79.82
2018-10-11T07:40:42.476Z,80.49
2018-10-11T07:41:42.411Z,79.63
2018-10-11T07:42:42.404Z,79.44
2018-10-11T07:43:42.404Z,79.24
2018-10-11T07:44:42.400Z,79.63
2018-10-11T07:45:42.393Z,79.72
2018-10-11T07:46:42.395Z,80.20
2018-10-11T07:47:42.397Z,79.34
2018-10-11T07:48:42.396Z,79.24
2018-10-11T07:49:42.388Z,79.24
2018-10-11T07:50:42.389Z,78.77
2018-10-11T07:51:42.393Z,78.86
2018-10-11T07:52:42.383Z,79.05
2018-10-11T07:53:42.427Z,79.05
2018-10-11T07:54:42.380Z,78.67
2018-10-11T07:55:42.380Z,78.47
2018-10-11T07:56:42.380Z,78.19
2018-10-11T07:57:42.379Z,78.28
2018-10-11T07:58:42.378Z,78.00
2018-10-11T07:59:42.375Z,77.46
2018-10-11T08:00:42.377Z,77.26
2018-10-11T08:01:42.409Z,77.46
2018-10-11T08:02:42.367Z,77.46
2018-10-11T08:03:42.370Z,77.08
2018-10-11T08:04:42.369Z,76.88
2018-10-11T08:05:42.375Z,76.98
2018-10-11T08:06:42.360Z,76.21
2018-10-11T08:07:42.389Z,77.08
2018-10-11T08:08:42.360Z,76.12
2018-10-11T08:09:42.356Z,77.46
2018-10-11T08:10:42.459Z,76.31
2018-10-11T08:11:42.537Z,75.73
2018-10-11T08:12:42.358Z,75.67
2018-10-11T08:13:42.435Z,75.57
2018-10-11T08:14:42.352Z,75.38
2018-10-11T08:15:42.371Z,75.87
2018-10-11T08:16:42.458Z,75.00
2018-10-11T08:17:42.656Z,74.71
2018-10-11T08:18:42.430Z,74.23
2018-10-11T08:19:42.421Z,73.75
2018-10-11T08:20:42.344Z,74.13
2018-10-11T08:21:42.400Z,73.46
2018-10-11T08:22:42.343Z,73.18
2018-10-11T08:23:42.342Z,73.37
2018-10-11T08:24:42.400Z,73.27
2018-10-11T08:25:42.640Z,73.31
2018-10-11T08:26:42.366Z,73.31
2018-10-11T08:27:42.337Z,72.54
2018-10-11T08:28:42.335Z,72.92
2018-10-11T08:29:42.334Z,73.41
2018-10-11T08:30:42.331Z,73.02
2018-10-11T08:31:42.403Z,72.44
2018-10-11T08:32:42.545Z,71.77
2018-10-11T08:33:42.328Z,72.16
2018-10-11T08:34:42.330Z,71.96
2018-10-11T08:35:42.335Z,72.00
2018-10-11T08:36:42.331Z,70.56
2018-10-11T08:37:42.349Z,70.56
2018-10-11T08:38:42.406Z,70.37
2018-10-11T08:39:42.330Z,70.65
2018-10-11T08:40:42.325Z,70.46
2018-10-11T08:41:42.326Z,70.46
2018-10-11T08:42:42.333Z,70.46
2018-10-11T08:43:42.339Z,69.89
2018-10-11T08:44:42.327Z,70.17
2018-10-11T08:45:42.328Z,69.79
2018-10-11T08:46:42.323Z,69.50
2018-10-11T08:47:42.321Z,69.98
2018-10-11T08:48:42.320Z,69.98
2018-10-11T08:49:42.323Z,70.07
2018-10-11T08:50:42.355Z,70.56
2018-10-11T08:51:42.319Z,70.75
2018-10-11T08:52:42.317Z,70.94
2018-10-11T08:53:42.412Z,70.46
2018-10-11T08:54:42.327Z,69.98
2018-10-11T08:55:42.432Z,70.07
2018-10-11T08:56:42.316Z,69.89
2018-10-11T08:57:42.318Z,70.17
2018-10-11T08:58:42.315Z,70.27
2018-10-11T08:59:42.399Z,70.07
2018-10-11T09:00:42.312Z,69.79
2018-10-11T09:01:42.313Z,69.73
2018-10-11T09:02:42.314Z,70.40
2018-10-11T09:03:42.490Z,70.01
2018-10-11T09:04:42.315Z,70.01
2018-10-11T09:05:42.315Z,69.53
2018-10-11T09:06:42.317Z,70.01
2018-10-11T09:07:42.323Z,69.24
2018-10-11T09:08:42.310Z,69.92
2018-10-11T09:09:42.393Z,69.63
2018-10-11T09:10:42.470Z,69.44
2018-10-11T09:11:42.312Z,69.63
2018-10-11T09:12:42.313Z,70.30
2018-10-11T09:13:42.315Z,69.82
2018-10-11T09:14:42.312Z,70.01
2018-10-11T09:15:42.318Z,70.30
2018-10-11T09:16:42.306Z,70.01
2018-10-11T09:17:42.313Z,69.53
2018-10-11T09:18:42.396Z,69.06
2018-10-11T09:19:42.307Z,69.63
2018-10-11T09:20:42.307Z,69.82
2018-10-11T09:21:42.315Z,69.57
2018-10-11T09:22:42.314Z,70.24
2018-10-11T09:23:42.311Z,69.67
2018-10-11T09:24:42.312Z,69.38
2018-10-11T09:25:42.309Z,69.95
2018-10-11T09:26:42.311Z,70.34
2018-10-11T09:27:42.307Z,69.76
2018-10-11T09:28:42.309Z,70.15
2018-10-11T09:29:42.312Z,69.38
2018-10-11T09:30:42.311Z,68.99
2018-10-11T09:31:42.313Z,69.67
2018-10-11T09:32:42.311Z,69.47
2018-10-11T09:33:42.312Z,69.09
2018-10-11T09:34:42.593Z,69.67
2018-10-11T09:35:42.315Z,69.38
2018-10-11T09:36:42.315Z,68.51
2018-10-11T09:37:42.310Z,69.09
2018-10-11T09:38:42.310Z,69.47
2018-10-11T09:39:42.308Z,69.47
2018-10-11T09:40:42.312Z,68.90
2018-10-11T09:41:42.307Z,69.09
2018-10-11T09:42:42.352Z,69.18
2018-10-11T09:43:42.309Z,69.09
2018-10-11T09:44:42.310Z,69.02
2018-10-11T09:45:42.312Z,68.16
2018-10-11T09:46:42.313Z,68.93
2018-10-11T09:47:42.313Z,68.84
2018-10-11T09:48:42.366Z,67.87
2018-10-11T09:49:42.418Z,68.44
2018-10-11T09:50:42.313Z,68.35
2018-10-11T09:51:42.315Z,68.44
2018-10-11T09:52:42.333Z,68.54
2018-10-11T09:53:42.313Z,69.35
2018-10-11T09:54:42.337Z,68.29
2018-10-11T09:55:42.319Z,68.19
2018-10-11T09:56:42.314Z,67.29
2018-10-11T09:57:42.322Z,66.75
2018-10-11T09:58:42.313Z,66.75
2018-10-11T09:59:42.319Z,66.94
2018-10-11T10:00:42.315Z,66.65
2018-10-11T10:01:42.317Z,66.94
2018-10-11T10:02:42.315Z,67.42
2018-10-11T10:03:42.317Z,67.23
2018-10-11T10:04:42.316Z,67.13
2018-10-11T10:05:42.321Z,66.85
2018-10-11T10:06:42.318Z,66.88
2018-10-11T10:07:42.459Z,65.33
2018-10-11T10:08:42.319Z,65.53
2018-10-11T10:09:43.003Z,64.86
2018-10-11T10:10:42.394Z,64.86
2018-10-11T10:11:42.320Z,64.56
2018-10-11T10:12:42.406Z,64.56
2018-10-11T10:13:42.324Z,64.18
2018-10-11T10:14:42.321Z,64.08
2018-10-11T10:15:42.457Z,63.60
2018-10-11T10:16:42.325Z,63.60
2018-10-11T10:17:42.941Z,63.02
2018-10-11T10:18:42.330Z,63.63
2018-10-11T10:19:42.324Z,63.73
2018-10-11T10:20:42.352Z,61.90
2018-10-11T10:21:42.339Z,62.57
2018-10-11T10:22:42.333Z,61.99
2018-10-11T10:23:42.329Z,61.03
2018-10-11T10:24:42.330Z,60.55
2018-10-11T10:25:42.344Z,61.51
2018-10-11T10:26:42.345Z,61.61
2018-10-11T10:27:42.335Z,61.99
2018-10-11T10:28:42.333Z,61.35
2018-10-11T10:29:42.333Z,60.35
2018-10-11T10:30:42.339Z,60.55
2018-10-11T10:31:42.335Z,60.35
2018-10-11T10:32:42.335Z,60.10
2018-10-11T10:33:42.337Z,60.10
2018-10-11T10:34:42.347Z,60.58
2018-10-11T10:35:42.350Z,60.28
2018-10-11T10:36:42.340Z,60.38
2018-10-11T10:37:42.344Z,59.71
2018-10-11T10:38:42.347Z,60.10
2018-10-11T10:39:42.356Z,59.71
2018-10-11T10:40:42.344Z,59.61
2018-10-11T10:41:42.344Z,58.84
2018-10-11T10:42:42.345Z,58.75
2018-10-11T10:43:42.357Z,58.84
2018-10-11T10:44:42.350Z,58.84
2018-10-11T10:45:42.350Z,58.94
2018-10-11T10:46:42.354Z,59.71
2018-10-11T10:47:42.357Z,59.35
2018-10-11T10:48:42.378Z,58.87
2018-10-11T10:49:42.351Z,58.97
2018-10-11T10:50:42.354Z,58.84
2018-10-11T10:51:42.359Z,58.77
2018-10-11T10:52:42.366Z,58.97
2018-10-11T10:53:42.365Z,59.35
2018-10-11T10:54:42.359Z,58.77
2018-10-11T10:55:42.361Z,59.35
2018-10-11T10:56:42.362Z,58.87
2018-10-11T10:57:42.369Z,58.87
2018-10-11T10:58:42.373Z,58.68
2018-10-11T10:59:42.367Z,59.06
2018-10-11T11:00:42.366Z,59.55
2018-10-11T11:01:42.371Z,59.06
2018-10-11T11:02:42.375Z,58.87
2018-10-11T11:03:42.377Z,58.87
2018-10-11T11:04:42.376Z,58.68
2018-10-11T11:05:42.377Z,58.68
2018-10-11T11:06:42.375Z,58.48
2018-10-11T11:07:42.378Z,58.29
2018-10-11T11:08:42.384Z,58.58
2018-10-11T11:09:42.380Z,58.77
2018-10-11T11:10:42.382Z,57.71
2018-10-11T11:11:42.386Z,58.00
2018-10-11T11:12:42.386Z,57.90
2018-10-11T11:13:42.390Z,58.19
2018-10-11T11:14:42.393Z,58.70
2018-10-11T11:15:42.398Z,58.29
2018-10-11T11:16:42.396Z,58.10
2018-10-11T11:17:42.392Z,57.16
2018-10-11T11:18:42.414Z,58.22
2018-10-11T11:19:42.400Z,57.45
2018-10-11T11:20:42.396Z,57.16
2018-10-11T11:21:42.402Z,56.87
2018-10-11T11:22:42.408Z,56.77
2018-10-11T11:23:42.400Z,56.96
2018-10-11T11:24:42.405Z,57.16
2018-10-11T11:25:42.405Z,57.35
2018-10-11T11:26:42.407Z,57.84
2018-10-11T11:27:42.413Z,57.06
2018-10-11T11:28:42.408Z,56.96
2018-10-11T11:29:42.413Z,58.12
2018-10-11T11:30:42.426Z,58.32
2018-10-11T11:31:42.416Z,56.87
2018-10-11T11:32:42.421Z,57.84
2018-10-11T11:33:42.964Z,57.74
2018-10-11T11:34:42.423Z,58.22
2018-10-11T11:35:42.426Z,58.22
2018-10-11T11:36:42.423Z,57.84
2018-10-11T11:37:42.421Z,57.64
2018-10-11T11:38:42.432Z,57.84
2018-10-11T11:39:42.426Z,58.22
2018-10-11T11:40:42.432Z,57.06
2018-10-11T11:41:42.436Z,57.84
2018-10-11T11:42:42.444Z,57.84
2018-10-11T11:43:42.439Z,56.77
2018-10-11T11:44:42.572Z,57.26
2018-10-11T11:45:42.483Z,56.87
2018-10-11T11:46:42.442Z,57.35
2018-10-11T11:47:42.446Z,57.06
2018-10-11T11:48:42.442Z,56.96
2018-10-11T11:49:42.451Z,56.96
2018-10-11T11:50:42.462Z,57.16
2018-10-11T11:51:42.452Z,56.48
2018-10-11T11:52:42.454Z,56.71
2018-10-11T11:53:42.452Z,56.77
2018-10-11T11:54:42.472Z,56.77
2018-10-11T11:55:42.469Z,56.39
2018-10-11T11:56:42.459Z,56.20
2018-10-11T11:57:42.464Z,56.90
2018-10-11T11:58:42.465Z,56.03
2018-10-11T11:59:42.465Z,56.03
2018-10-11T12:00:42.465Z,56.13
2018-10-11T12:01:42.467Z,56.51
2018-10-11T12:02:42.535Z,56.03
2018-10-11T12:03:42.479Z,55.93
2018-10-11T12:04:42.475Z,55.93
2018-10-11T12:05:42.476Z,55.93
2018-10-11T12:06:42.476Z,55.83
2018-10-11T12:07:42.477Z,55.55
2018-10-11T12:08:42.480Z,55.83
2018-10-11T12:09:42.481Z,54.97
2018-10-11T12:10:42.529Z,55.74
2018-10-11T12:11:42.493Z,55.65
2018-10-11T12:12:42.492Z,55.26
2018-10-11T12:13:42.487Z,55.55
2018-10-11T12:14:42.490Z,55.16
2018-10-11T12:15:42.493Z,54.97
2018-10-11T12:16:42.559Z,55.65
2018-10-11T12:17:42.497Z,55.26
2018-10-11T12:18:42.500Z,55.55
2018-10-11T12:19:42.505Z,54.87
2018-10-11T12:20:42.502Z,55.16
2018-10-11T12:21:42.507Z,54.87
2018-10-11T12:22:42.508Z,54.68
2018-10-11T12:23:42.513Z,54.97
2018-10-11T12:24:42.524Z,55.07
2018-10-11T12:25:42.513Z,54.68
2018-10-11T12:26:42.519Z,54.39
2018-10-11T12:27:42.519Z,54.39
2018-10-11T12:28:42.685Z,54.39
2018-10-11T12:29:42.523Z,54.41
2018-10-11T12:30:42.529Z,54.61
2018-10-11T12:31:42.523Z,54.51
2018-10-11T12:32:42.525Z,53.74
2018-10-11T12:33:42.527Z,53.64
2018-10-11T12:34:42.535Z,53.61
2018-10-11T12:35:42.531Z,53.91
2018-10-11T12:36:42.547Z,53.33
2018-10-11T12:37:42.596Z,53.71
2018-10-11T12:38:42.557Z,53.83
2018-10-11T12:39:42.543Z,54.03
2018-10-11T12:40:42.547Z,53.61
2018-10-11T12:41:42.544Z,53.23
2018-10-11T12:42:42.547Z,53.33
2018-10-11T12:43:42.549Z,53.81
2018-10-11T12:44:42.551Z,53.83
2018-10-11T12:45:42.556Z,53.91
2018-10-11T12:46:42.571Z,53.91
2018-10-11T12:47:42.560Z,54.22
2018-10-11T12:48:42.560Z,53.71
2018-10-11T12:49:45.360Z,53.42
2018-10-11T12:50:42.566Z,53.42
2018-10-11T12:51:42.578Z,53.71
2018-10-11T12:52:42.570Z,53.23